sensor_id;sensor_type;location;lat;lon;timestamp;P1;durP1;ratioP1;P2;durP2;ratioP2
77457;SDS011;66541;49.346;8.648;2023-05-07T00:01:30;2.90;;;0.77;;
77457;SDS011;66541;49.346;8.648;2023-05-07T00:03:56;3.28;;;0.85;;
77457;SDS011;66541;49.346;8.648;2023-05-07T00:06:21;3.20;;;0.60;;
77457;SDS011;66541;49.346;8.648;2023-05-07T00:08:47;4.75;;;1.10;;
77457;SDS011;66541;49.346;8.648;2023-05-07T00:11:12;3.97;;;0.80;;
77457;SDS011;66541;49.346;8.648;2023-05-07T00:13:38;4.18;;;0.77;;
77457;SDS011;66541;49.346;8.648;2023-05-07T00:16:03;4.15;;;0.85;;
77457;SDS011;66541;49.346;8.648;2023-05-07T00:18:29;3.40;;;0.73;;
77457;SDS011;66541;49.346;8.648;2023-05-07T00:20:54;4.57;;;0.93;;
77457;SDS011;66541;49.346;8.648;2023-05-07T00:23:20;3.78;;;0.70;;
77457;SDS011;66541;49.346;8.648;2023-05-07T00:25:45;3.13;;;0.80;;
77457;SDS011;66541;49.346;8.648;2023-05-07T00:28:10;4.75;;;0.90;;
77457;SDS011;66541;49.346;8.648;2023-05-07T00:30:36;3.10;;;0.63;;
77457;SDS011;66541;49.346;8.648;2023-05-07T00:33:01;3.63;;;0.60;;
77457;SDS011;66541;49.346;8.648;2023-05-07T00:35:27;3.22;;;0.70;;
77457;SDS011;66541;49.346;8.648;2023-05-07T00:37:53;3.97;;;0.50;;
77457;SDS011;66541;49.346;8.648;2023-05-07T00:40:18;3.03;;;0.60;;
77457;SDS011;66541;49.346;8.648;2023-05-07T00:42:44;4.80;;;0.70;;
77457;SDS011;66541;49.346;8.648;2023-05-07T00:45:12;2.95;;;0.60;;
77457;SDS011;66541;49.346;8.648;2023-05-07T00:47:40;2.30;;;0.60;;
77457;SDS011;66541;49.346;8.648;2023-05-07T00:50:06;3.22;;;0.70;;
77457;SDS011;66541;49.346;8.648;2023-05-07T00:52:33;2.55;;;0.60;;
77457;SDS011;66541;49.346;8.648;2023-05-07T00:54:59;3.47;;;0.60;;
77457;SDS011;66541;49.346;8.648;2023-05-07T00:57:28;3.47;;;0.80;;
77457;SDS011;66541;49.346;8.648;2023-05-07T00:59:53;3.65;;;0.77;;
77457;SDS011;66541;49.346;8.648;2023-05-07T01:02:19;3.20;;;0.60;;
77457;SDS011;66541;49.346;8.648;2023-05-07T01:04:44;4.03;;;1.08;;
77457;SDS011;66541;49.346;8.648;2023-05-07T01:07:10;3.95;;;0.80;;
77457;SDS011;66541;49.346;8.648;2023-05-07T01:09:35;3.75;;;0.60;;
77457;SDS011;66541;49.346;8.648;2023-05-07T01:12:01;4.70;;;0.70;;
77457;SDS011;66541;49.346;8.648;2023-05-07T01:14:28;4.72;;;0.98;;
77457;SDS011;66541;49.346;8.648;2023-05-07T01:16:54;3.10;;;0.80;;
77457;SDS011;66541;49.346;8.648;2023-05-07T01:19:19;2.60;;;0.60;;
77457;SDS011;66541;49.346;8.648;2023-05-07T01:21:46;2.00;;;0.50;;
77457;SDS011;66541;49.346;8.648;2023-05-07T01:24:12;3.95;;;0.63;;
77457;SDS011;66541;49.346;8.648;2023-05-07T01:26:38;2.90;;;0.50;;
77457;SDS011;66541;49.346;8.648;2023-05-07T01:29:04;3.03;;;0.70;;
77457;SDS011;66541;49.346;8.648;2023-05-07T01:31:30;2.42;;;0.50;;
77457;SDS011;66541;49.346;8.648;2023-05-07T01:33:55;5.25;;;0.68;;
77457;SDS011;66541;49.346;8.648;2023-05-07T01:36:21;3.58;;;0.85;;
77457;SDS011;66541;49.346;8.648;2023-05-07T01:38:48;3.03;;;0.70;;
77457;SDS011;66541;49.346;8.648;2023-05-07T01:41:14;4.15;;;0.63;;
77457;SDS011;66541;49.346;8.648;2023-05-07T01:43:40;3.03;;;0.60;;
77457;SDS011;66541;49.346;8.648;2023-05-07T01:46:06;2.83;;;0.50;;
77457;SDS011;66541;49.346;8.648;2023-05-07T01:48:34;3.85;;;0.90;;
77457;SDS011;66541;49.346;8.648;2023-05-07T01:51:00;2.80;;;0.75;;
77457;SDS011;66541;49.346;8.648;2023-05-07T01:53:27;3.67;;;0.60;;
77457;SDS011;66541;49.346;8.648;2023-05-07T01:55:52;3.15;;;0.55;;
77457;SDS011;66541;49.346;8.648;2023-05-07T01:58:18;3.17;;;0.60;;
77457;SDS011;66541;49.346;8.648;2023-05-07T02:00:43;3.28;;;0.60;;
77457;SDS011;66541;49.346;8.648;2023-05-07T02:03:08;3.53;;;0.60;;
77457;SDS011;66541;49.346;8.648;2023-05-07T02:05:34;5.45;;;0.82;;
77457;SDS011;66541;49.346;8.648;2023-05-07T02:07:59;3.22;;;0.95;;
77457;SDS011;66541;49.346;8.648;2023-05-07T02:10:24;3.15;;;0.65;;
77457;SDS011;66541;49.346;8.648;2023-05-07T02:12:50;3.00;;;0.63;;
77457;SDS011;66541;49.346;8.648;2023-05-07T02:15:15;2.90;;;0.63;;
77457;SDS011;66541;49.346;8.648;2023-05-07T02:17:57;3.20;;;0.50;;
77457;SDS011;66541;49.346;8.648;2023-05-07T02:20:24;3.78;;;0.50;;
77457;SDS011;66541;49.346;8.648;2023-05-07T02:22:50;2.75;;;0.63;;
77457;SDS011;66541;49.346;8.648;2023-05-07T02:25:15;3.25;;;0.65;;
77457;SDS011;66541;49.346;8.648;2023-05-07T02:27:40;2.80;;;0.68;;
77457;SDS011;66541;49.346;8.648;2023-05-07T02:30:06;3.88;;;0.75;;
77457;SDS011;66541;49.346;8.648;2023-05-07T02:32:31;2.45;;;0.60;;
77457;SDS011;66541;49.346;8.648;2023-05-07T02:34:57;3.20;;;0.63;;
77457;SDS011;66541;49.346;8.648;2023-05-07T02:37:22;3.40;;;0.70;;
77457;SDS011;66541;49.346;8.648;2023-05-07T02:39:47;4.25;;;0.70;;
77457;SDS011;66541;49.346;8.648;2023-05-07T02:42:13;3.03;;;0.70;;
77457;SDS011;66541;49.346;8.648;2023-05-07T02:44:38;3.60;;;0.60;;
77457;SDS011;66541;49.346;8.648;2023-05-07T02:47:03;3.67;;;0.70;;
77457;SDS011;66541;49.346;8.648;2023-05-07T02:49:29;4.93;;;0.77;;
77457;SDS011;66541;49.346;8.648;2023-05-07T02:51:54;3.17;;;0.60;;
77457;SDS011;66541;49.346;8.648;2023-05-07T02:54:20;4.18;;;1.13;;
77457;SDS011;66541;49.346;8.648;2023-05-07T02:56:46;3.08;;;0.80;;
77457;SDS011;66541;49.346;8.648;2023-05-07T02:59:11;3.40;;;0.80;;
77457;SDS011;66541;49.346;8.648;2023-05-07T03:01:36;4.38;;;0.80;;
77457;SDS011;66541;49.346;8.648;2023-05-07T03:04:02;4.13;;;0.98;;
77457;SDS011;66541;49.346;8.648;2023-05-07T03:06:27;3.83;;;0.90;;
77457;SDS011;66541;49.346;8.648;2023-05-07T03:08:52;4.70;;;0.90;;
77457;SDS011;66541;49.346;8.648;2023-05-07T03:11:17;4.95;;;1.10;;
77457;SDS011;66541;49.346;8.648;2023-05-07T03:13:43;7.80;;;1.33;;
77457;SDS011;66541;49.346;8.648;2023-05-07T03:16:08;5.20;;;1.40;;
77457;SDS011;66541;49.346;8.648;2023-05-07T03:18:33;6.38;;;1.48;;
77457;SDS011;66541;49.346;8.648;2023-05-07T03:20:59;5.22;;;1.20;;
77457;SDS011;66541;49.346;8.648;2023-05-07T03:23:24;4.63;;;1.15;;
77457;SDS011;66541;49.346;8.648;2023-05-07T03:25:49;5.40;;;1.40;;
77457;SDS011;66541;49.346;8.648;2023-05-07T03:28:15;6.13;;;1.63;;
77457;SDS011;66541;49.346;8.648;2023-05-07T03:30:40;7.00;;;1.70;;
77457;SDS011;66541;49.346;8.648;2023-05-07T03:33:05;7.28;;;1.80;;
77457;SDS011;66541;49.346;8.648;2023-05-07T03:35:30;6.82;;;1.80;;
77457;SDS011;66541;49.346;8.648;2023-05-07T03:37:56;6.28;;;1.83;;
77457;SDS011;66541;49.346;8.648;2023-05-07T03:40:21;7.13;;;2.58;;
77457;SDS011;66541;49.346;8.648;2023-05-07T03:42:46;6.50;;;2.25;;
77457;SDS011;66541;49.346;8.648;2023-05-07T03:45:12;8.77;;;2.00;;
77457;SDS011;66541;49.346;8.648;2023-05-07T03:47:37;7.70;;;2.28;;
77457;SDS011;66541;49.346;8.648;2023-05-07T03:50:02;6.50;;;1.83;;
77457;SDS011;66541;49.346;8.648;2023-05-07T03:52:28;5.78;;;1.77;;
77457;SDS011;66541;49.346;8.648;2023-05-07T03:54:53;6.07;;;1.60;;
77457;SDS011;66541;49.346;8.648;2023-05-07T03:57:19;8.57;;;2.58;;
77457;SDS011;66541;49.346;8.648;2023-05-07T03:59:44;7.30;;;2.45;;
77457;SDS011;66541;49.346;8.648;2023-05-07T04:02:10;7.93;;;2.03;;
77457;SDS011;66541;49.346;8.648;2023-05-07T04:04:35;7.30;;;2.00;;
77457;SDS011;66541;49.346;8.648;2023-05-07T04:07:00;5.72;;;1.80;;
77457;SDS011;66541;49.346;8.648;2023-05-07T04:09:26;6.53;;;2.22;;
77457;SDS011;66541;49.346;8.648;2023-05-07T04:11:51;6.55;;;2.30;;
77457;SDS011;66541;49.346;8.648;2023-05-07T04:14:16;7.82;;;2.15;;
77457;SDS011;66541;49.346;8.648;2023-05-07T04:16:41;6.22;;;2.22;;
77457;SDS011;66541;49.346;8.648;2023-05-07T04:19:07;7.93;;;2.75;;
77457;SDS011;66541;49.346;8.648;2023-05-07T04:21:32;9.38;;;2.20;;
77457;SDS011;66541;49.346;8.648;2023-05-07T04:23:57;6.05;;;1.92;;
77457;SDS011;66541;49.346;8.648;2023-05-07T04:26:23;6.65;;;2.30;;
77457;SDS011;66541;49.346;8.648;2023-05-07T04:28:49;6.68;;;2.20;;
77457;SDS011;66541;49.346;8.648;2023-05-07T04:31:14;9.13;;;2.78;;
77457;SDS011;66541;49.346;8.648;2023-05-07T04:33:40;6.00;;;2.10;;
77457;SDS011;66541;49.346;8.648;2023-05-07T04:36:05;7.68;;;2.42;;
77457;SDS011;66541;49.346;8.648;2023-05-07T04:38:30;5.80;;;1.75;;
77457;SDS011;66541;49.346;8.648;2023-05-07T04:40:56;7.18;;;1.90;;
77457;SDS011;66541;49.346;8.648;2023-05-07T04:43:22;6.65;;;2.20;;
77457;SDS011;66541;49.346;8.648;2023-05-07T04:45:51;5.47;;;2.00;;
77457;SDS011;66541;49.346;8.648;2023-05-07T04:48:17;6.05;;;2.15;;
77457;SDS011;66541;49.346;8.648;2023-05-07T04:50:44;5.88;;;1.90;;
77457;SDS011;66541;49.346;8.648;2023-05-07T04:53:09;5.10;;;1.77;;
77457;SDS011;66541;49.346;8.648;2023-05-07T04:55:35;7.65;;;2.00;;
77457;SDS011;66541;49.346;8.648;2023-05-07T04:58:00;6.40;;;2.28;;
77457;SDS011;66541;49.346;8.648;2023-05-07T05:00:26;7.05;;;2.03;;
77457;SDS011;66541;49.346;8.648;2023-05-07T05:02:52;7.15;;;2.60;;
77457;SDS011;66541;49.346;8.648;2023-05-07T05:05:17;7.78;;;2.42;;
77457;SDS011;66541;49.346;8.648;2023-05-07T05:07:42;6.60;;;2.30;;
77457;SDS011;66541;49.346;8.648;2023-05-07T05:10:08;9.60;;;2.58;;
77457;SDS011;66541;49.346;8.648;2023-05-07T05:12:33;8.85;;;2.70;;
77457;SDS011;66541;49.346;8.648;2023-05-07T05:14:58;8.32;;;2.60;;
77457;SDS011;66541;49.346;8.648;2023-05-07T05:17:24;7.60;;;2.90;;
77457;SDS011;66541;49.346;8.648;2023-05-07T05:19:49;8.30;;;2.22;;
77457;SDS011;66541;49.346;8.648;2023-05-07T05:22:15;7.10;;;2.40;;
77457;SDS011;66541;49.346;8.648;2023-05-07T05:24:41;6.88;;;2.35;;
77457;SDS011;66541;49.346;8.648;2023-05-07T05:27:06;8.75;;;2.70;;
77457;SDS011;66541;49.346;8.648;2023-05-07T05:29:31;6.22;;;2.00;;
77457;SDS011;66541;49.346;8.648;2023-05-07T05:31:57;6.53;;;2.10;;
77457;SDS011;66541;49.346;8.648;2023-05-07T05:34:22;7.93;;;2.05;;
77457;SDS011;66541;49.346;8.648;2023-05-07T05:36:47;6.53;;;2.08;;
77457;SDS011;66541;49.346;8.648;2023-05-07T05:39:13;7.03;;;2.35;;
77457;SDS011;66541;49.346;8.648;2023-05-07T05:41:39;5.50;;;1.58;;
77457;SDS011;66541;49.346;8.648;2023-05-07T05:44:04;6.80;;;2.05;;
77457;SDS011;66541;49.346;8.648;2023-05-07T05:46:29;5.95;;;1.52;;
77457;SDS011;66541;49.346;8.648;2023-05-07T05:48:54;5.95;;;1.00;;
77457;SDS011;66541;49.346;8.648;2023-05-07T05:51:20;5.60;;;0.70;;
77457;SDS011;66541;49.346;8.648;2023-05-07T05:53:46;3.70;;;1.00;;
77457;SDS011;66541;49.346;8.648;2023-05-07T05:56:11;2.80;;;0.60;;
77457;SDS011;66541;49.346;8.648;2023-05-07T05:58:36;3.17;;;0.70;;
77457;SDS011;66541;49.346;8.648;2023-05-07T06:01:02;3.30;;;0.60;;
77457;SDS011;66541;49.346;8.648;2023-05-07T06:03:27;2.53;;;0.60;;
77457;SDS011;66541;49.346;8.648;2023-05-07T06:05:53;4.28;;;1.20;;
77457;SDS011;66541;49.346;8.648;2023-05-07T06:08:18;3.70;;;0.63;;
77457;SDS011;66541;49.346;8.648;2023-05-07T06:10:43;3.88;;;0.70;;
77457;SDS011;66541;49.346;8.648;2023-05-07T06:13:09;3.55;;;0.73;;
77457;SDS011;66541;49.346;8.648;2023-05-07T06:15:34;4.65;;;1.33;;
77457;SDS011;66541;49.346;8.648;2023-05-07T06:17:59;6.80;;;1.75;;
77457;SDS011;66541;49.346;8.648;2023-05-07T06:20:25;5.93;;;1.67;;
77457;SDS011;66541;49.346;8.648;2023-05-07T06:22:50;6.55;;;1.73;;
77457;SDS011;66541;49.346;8.648;2023-05-07T06:25:15;6.55;;;1.70;;
77457;SDS011;66541;49.346;8.648;2023-05-07T06:27:41;4.57;;;1.15;;
77457;SDS011;66541;49.346;8.648;2023-05-07T06:30:06;5.03;;;1.40;;
77457;SDS011;66541;49.346;8.648;2023-05-07T06:32:32;5.28;;;1.48;;
77457;SDS011;66541;49.346;8.648;2023-05-07T06:34:58;5.10;;;1.10;;
77457;SDS011;66541;49.346;8.648;2023-05-07T06:37:23;4.18;;;0.85;;
77457;SDS011;66541;49.346;8.648;2023-05-07T06:39:48;4.10;;;0.73;;
77457;SDS011;66541;49.346;8.648;2023-05-07T06:42:14;3.78;;;1.00;;
77457;SDS011;66541;49.346;8.648;2023-05-07T06:44:39;5.43;;;1.20;;
77457;SDS011;66541;49.346;8.648;2023-05-07T06:47:04;4.82;;;1.13;;
77457;SDS011;66541;49.346;8.648;2023-05-07T06:49:30;5.35;;;1.30;;
77457;SDS011;66541;49.346;8.648;2023-05-07T06:51:56;5.88;;;1.42;;
77457;SDS011;66541;49.346;8.648;2023-05-07T06:54:22;5.90;;;1.75;;
77457;SDS011;66541;49.346;8.648;2023-05-07T06:56:47;6.45;;;2.00;;
77457;SDS011;66541;49.346;8.648;2023-05-07T06:59:12;8.18;;;2.70;;
77457;SDS011;66541;49.346;8.648;2023-05-07T07:01:38;7.32;;;2.22;;
77457;SDS011;66541;49.346;8.648;2023-05-07T07:04:03;7.55;;;2.80;;
77457;SDS011;66541;49.346;8.648;2023-05-07T07:06:28;6.57;;;2.35;;
77457;SDS011;66541;49.346;8.648;2023-05-07T07:08:56;6.68;;;2.13;;
77457;SDS011;66541;49.346;8.648;2023-05-07T07:11:21;8.23;;;2.95;;
77457;SDS011;66541;49.346;8.648;2023-05-07T07:13:47;8.48;;;3.15;;
77457;SDS011;66541;49.346;8.648;2023-05-07T07:16:12;7.15;;;2.03;;
77457;SDS011;66541;49.346;8.648;2023-05-07T07:18:37;4.97;;;0.95;;
77457;SDS011;66541;49.346;8.648;2023-05-07T07:21:03;4.05;;;0.95;;
77457;SDS011;66541;49.346;8.648;2023-05-07T07:23:28;4.60;;;1.00;;
77457;SDS011;66541;49.346;8.648;2023-05-07T07:25:54;3.05;;;0.88;;
77457;SDS011;66541;49.346;8.648;2023-05-07T07:28:20;5.70;;;0.88;;
77457;SDS011;66541;49.346;8.648;2023-05-07T07:30:46;4.25;;;0.90;;
77457;SDS011;66541;49.346;8.648;2023-05-07T07:33:11;5.13;;;0.82;;
77457;SDS011;66541;49.346;8.648;2023-05-07T07:35:37;3.40;;;0.75;;
77457;SDS011;66541;49.346;8.648;2023-05-07T07:38:02;5.45;;;0.90;;
77457;SDS011;66541;49.346;8.648;2023-05-07T07:40:27;3.53;;;1.10;;
77457;SDS011;66541;49.346;8.648;2023-05-07T07:42:53;3.50;;;0.90;;
77457;SDS011;66541;49.346;8.648;2023-05-07T07:45:18;5.05;;;0.75;;
77457;SDS011;66541;49.346;8.648;2023-05-07T07:47:44;4.13;;;1.30;;
77457;SDS011;66541;49.346;8.648;2023-05-07T07:50:09;4.20;;;0.90;;
77457;SDS011;66541;49.346;8.648;2023-05-07T07:52:35;3.30;;;1.00;;
77457;SDS011;66541;49.346;8.648;2023-05-07T07:55:00;2.33;;;0.52;;
77457;SDS011;66541;49.346;8.648;2023-05-07T07:57:26;5.50;;;0.98;;
77457;SDS011;66541;49.346;8.648;2023-05-07T07:59:51;3.20;;;0.70;;
77457;SDS011;66541;49.346;8.648;2023-05-07T08:02:17;2.53;;;1.00;;
77457;SDS011;66541;49.346;8.648;2023-05-07T08:04:42;3.85;;;0.90;;
77457;SDS011;66541;49.346;8.648;2023-05-07T08:07:08;4.63;;;0.90;;
77457;SDS011;66541;49.346;8.648;2023-05-07T08:09:37;2.58;;;0.95;;
77457;SDS011;66541;49.346;8.648;2023-05-07T08:12:03;3.47;;;1.27;;
77457;SDS011;66541;49.346;8.648;2023-05-07T08:14:29;4.15;;;0.65;;
77457;SDS011;66541;49.346;8.648;2023-05-07T08:16:55;3.38;;;1.13;;
77457;SDS011;66541;49.346;8.648;2023-05-07T08:19:20;5.18;;;1.27;;
77457;SDS011;66541;49.346;8.648;2023-05-07T08:21:46;4.80;;;1.52;;
77457;SDS011;66541;49.346;8.648;2023-05-07T08:24:15;5.95;;;2.25;;
77457;SDS011;66541;49.346;8.648;2023-05-07T08:26:40;7.80;;;1.83;;
77457;SDS011;66541;49.346;8.648;2023-05-07T08:29:06;5.45;;;1.70;;
77457;SDS011;66541;49.346;8.648;2023-05-07T08:31:31;5.60;;;1.98;;
77457;SDS011;66541;49.346;8.648;2023-05-07T08:33:57;5.40;;;1.55;;
77457;SDS011;66541;49.346;8.648;2023-05-07T08:36:23;4.03;;;1.35;;
77457;SDS011;66541;49.346;8.648;2023-05-07T08:38:48;6.38;;;1.88;;
77457;SDS011;66541;49.346;8.648;2023-05-07T08:41:14;7.03;;;1.65;;
77457;SDS011;66541;49.346;8.648;2023-05-07T08:43:40;4.22;;;1.08;;
77457;SDS011;66541;49.346;8.648;2023-05-07T08:46:06;4.18;;;1.13;;
77457;SDS011;66541;49.346;8.648;2023-05-07T08:48:34;4.50;;;1.40;;
77457;SDS011;66541;49.346;8.648;2023-05-07T08:50:59;4.95;;;1.50;;
77457;SDS011;66541;49.346;8.648;2023-05-07T08:53:25;6.57;;;1.45;;
77457;SDS011;66541;49.346;8.648;2023-05-07T08:55:50;4.68;;;1.23;;
77457;SDS011;66541;49.346;8.648;2023-05-07T08:58:16;4.60;;;1.55;;
77457;SDS011;66541;49.346;8.648;2023-05-07T09:00:41;5.90;;;1.70;;
77457;SDS011;66541;49.346;8.648;2023-05-07T09:03:07;4.57;;;1.45;;
77457;SDS011;66541;49.346;8.648;2023-05-07T09:05:32;5.65;;;1.58;;
77457;SDS011;66541;49.346;8.648;2023-05-07T09:08:04;4.13;;;1.48;;
77457;SDS011;66541;49.346;8.648;2023-05-07T09:10:32;4.72;;;1.35;;
77457;SDS011;66541;49.346;8.648;2023-05-07T09:12:58;6.13;;;1.30;;
77457;SDS011;66541;49.346;8.648;2023-05-07T09:15:23;4.50;;;1.15;;
77457;SDS011;66541;49.346;8.648;2023-05-07T09:17:49;5.60;;;1.63;;
77457;SDS011;66541;49.346;8.648;2023-05-07T09:20:15;4.88;;;1.30;;
77457;SDS011;66541;49.346;8.648;2023-05-07T09:22:43;4.20;;;1.27;;
77457;SDS011;66541;49.346;8.648;2023-05-07T09:25:09;4.55;;;1.23;;
77457;SDS011;66541;49.346;8.648;2023-05-07T09:27:35;6.75;;;1.70;;
77457;SDS011;66541;49.346;8.648;2023-05-07T09:30:06;2.97;;;1.02;;
77457;SDS011;66541;49.346;8.648;2023-05-07T09:32:35;5.22;;;1.45;;
77457;SDS011;66541;49.346;8.648;2023-05-07T09:35:02;4.57;;;1.13;;
77457;SDS011;66541;49.346;8.648;2023-05-07T09:37:28;4.32;;;1.40;;
77457;SDS011;66541;49.346;8.648;2023-05-07T09:39:55;4.10;;;1.13;;
77457;SDS011;66541;49.346;8.648;2023-05-07T09:42:24;3.35;;;1.02;;
77457;SDS011;66541;49.346;8.648;2023-05-07T09:44:52;4.82;;;1.45;;
77457;SDS011;66541;49.346;8.648;2023-05-07T09:47:20;4.97;;;1.33;;
77457;SDS011;66541;49.346;8.648;2023-05-07T09:49:49;5.97;;;1.40;;
77457;SDS011;66541;49.346;8.648;2023-05-07T09:52:15;6.53;;;1.55;;
77457;SDS011;66541;49.346;8.648;2023-05-07T09:54:41;6.47;;;1.63;;
77457;SDS011;66541;49.346;8.648;2023-05-07T09:57:09;5.13;;;1.80;;
77457;SDS011;66541;49.346;8.648;2023-05-07T09:59:36;5.78;;;1.80;;
77457;SDS011;66541;49.346;8.648;2023-05-07T10:02:02;5.65;;;1.52;;
77457;SDS011;66541;49.346;8.648;2023-05-07T10:04:28;5.57;;;1.42;;
77457;SDS011;66541;49.346;8.648;2023-05-07T10:06:54;5.20;;;1.50;;
77457;SDS011;66541;49.346;8.648;2023-05-07T10:09:20;5.88;;;1.70;;
77457;SDS011;66541;49.346;8.648;2023-05-07T10:11:46;4.10;;;1.20;;
77457;SDS011;66541;49.346;8.648;2023-05-07T10:14:13;5.38;;;1.38;;
77457;SDS011;66541;49.346;8.648;2023-05-07T10:16:39;5.50;;;1.45;;
77457;SDS011;66541;49.346;8.648;2023-05-07T10:19:05;7.13;;;1.20;;
77457;SDS011;66541;49.346;8.648;2023-05-07T10:21:33;3.60;;;1.23;;
77457;SDS011;66541;49.346;8.648;2023-05-07T10:24:16;4.05;;;1.33;;
77457;SDS011;66541;49.346;8.648;2023-05-07T10:26:45;4.10;;;1.50;;
77457;SDS011;66541;49.346;8.648;2023-05-07T10:29:14;4.15;;;0.93;;
77457;SDS011;66541;49.346;8.648;2023-05-07T10:31:51;4.00;;;1.33;;
77457;SDS011;66541;49.346;8.648;2023-05-07T10:34:24;5.75;;;1.42;;
77457;SDS011;66541;49.346;8.648;2023-05-07T10:36:52;3.75;;;1.25;;
77457;SDS011;66541;49.346;8.648;2023-05-07T10:39:19;4.50;;;1.20;;
77457;SDS011;66541;49.346;8.648;2023-05-07T10:41:45;4.93;;;1.27;;
77457;SDS011;66541;49.346;8.648;2023-05-07T10:44:10;5.35;;;1.63;;
77457;SDS011;66541;49.346;8.648;2023-05-07T10:46:36;4.65;;;1.17;;
77457;SDS011;66541;49.346;8.648;2023-05-07T10:51:28;5.30;;;1.45;;
77457;SDS011;66541;49.346;8.648;2023-05-07T10:56:39;4.22;;;1.50;;
77457;SDS011;66541;49.346;8.648;2023-05-07T10:59:41;4.85;;;1.80;;
77457;SDS011;66541;49.346;8.648;2023-05-07T11:02:05;4.40;;;1.42;;
77457;SDS011;66541;49.346;8.648;2023-05-07T11:15:02;5.47;;;1.27;;
77457;SDS011;66541;49.346;8.648;2023-05-07T11:17:29;3.17;;;1.13;;
77457;SDS011;66541;49.346;8.648;2023-05-07T11:19:57;4.60;;;1.20;;
77457;SDS011;66541;49.346;8.648;2023-05-07T11:24:57;3.65;;;1.25;;
77457;SDS011;66541;49.346;8.648;2023-05-07T11:27:24;3.78;;;1.80;;
77457;SDS011;66541;49.346;8.648;2023-05-07T11:29:50;4.50;;;1.13;;
77457;SDS011;66541;49.346;8.648;2023-05-07T11:32:16;5.35;;;1.75;;
77457;SDS011;66541;49.346;8.648;2023-05-07T11:34:47;5.40;;;1.23;;
77457;SDS011;66541;49.346;8.648;2023-05-07T11:37:16;4.07;;;1.20;;
77457;SDS011;66541;49.346;8.648;2023-05-07T11:39:42;4.03;;;1.33;;
77457;SDS011;66541;49.346;8.648;2023-05-07T11:42:24;3.42;;;1.15;;
77457;SDS011;66541;49.346;8.648;2023-05-07T11:44:50;3.63;;;1.15;;
77457;SDS011;66541;49.346;8.648;2023-05-07T11:47:19;3.78;;;1.55;;
77457;SDS011;66541;49.346;8.648;2023-05-07T11:49:48;5.65;;;1.30;;
77457;SDS011;66541;49.346;8.648;2023-05-07T11:52:15;5.43;;;3.22;;
77457;SDS011;66541;49.346;8.648;2023-05-07T11:54:41;4.53;;;1.45;;
77457;SDS011;66541;49.346;8.648;2023-05-07T11:57:06;4.60;;;1.55;;
77457;SDS011;66541;49.346;8.648;2023-05-07T11:59:41;4.40;;;1.20;;
77457;SDS011;66541;49.346;8.648;2023-05-07T12:02:09;3.75;;;1.33;;
77457;SDS011;66541;49.346;8.648;2023-05-07T12:04:34;4.25;;;1.55;;
77457;SDS011;66541;49.346;8.648;2023-05-07T12:07:00;6.32;;;1.55;;
77457;SDS011;66541;49.346;8.648;2023-05-07T12:09:26;5.88;;;2.67;;
77457;SDS011;66541;49.346;8.648;2023-05-07T12:11:51;6.15;;;1.58;;
77457;SDS011;66541;49.346;8.648;2023-05-07T12:14:16;4.82;;;1.55;;
77457;SDS011;66541;49.346;8.648;2023-05-07T12:16:42;4.85;;;1.27;;
77457;SDS011;66541;49.346;8.648;2023-05-07T12:19:08;5.30;;;1.55;;
77457;SDS011;66541;49.346;8.648;2023-05-07T12:21:37;4.32;;;2.15;;
77457;SDS011;66541;49.346;8.648;2023-05-07T12:24:02;5.05;;;1.42;;
77457;SDS011;66541;49.346;8.648;2023-05-07T12:26:28;4.38;;;2.08;;
77457;SDS011;66541;49.346;8.648;2023-05-07T12:28:53;4.65;;;1.58;;
77457;SDS011;66541;49.346;8.648;2023-05-07T12:31:18;4.97;;;2.03;;
77457;SDS011;66541;49.346;8.648;2023-05-07T12:33:44;4.07;;;1.38;;
77457;SDS011;66541;49.346;8.648;2023-05-07T12:36:11;5.18;;;1.63;;
77457;SDS011;66541;49.346;8.648;2023-05-07T12:38:37;4.10;;;1.30;;
77457;SDS011;66541;49.346;8.648;2023-05-07T12:41:03;4.93;;;1.48;;
77457;SDS011;66541;49.346;8.648;2023-05-07T12:43:29;4.55;;;1.33;;
77457;SDS011;66541;49.346;8.648;2023-05-07T12:45:59;5.28;;;1.50;;
77457;SDS011;66541;49.346;8.648;2023-05-07T12:48:26;4.10;;;1.55;;
77457;SDS011;66541;49.346;8.648;2023-05-07T12:50:56;4.30;;;1.58;;
77457;SDS011;66541;49.346;8.648;2023-05-07T12:55:49;5.30;;;1.75;;
77457;SDS011;66541;49.346;8.648;2023-05-07T12:58:19;4.22;;;1.83;;
77457;SDS011;66541;49.346;8.648;2023-05-07T13:00:49;3.92;;;1.45;;
77457;SDS011;66541;49.346;8.648;2023-05-07T13:03:21;3.95;;;1.60;;
77457;SDS011;66541;49.346;8.648;2023-05-07T13:06:01;3.92;;;1.55;;
77457;SDS011;66541;49.346;8.648;2023-05-07T13:08:28;5.07;;;1.75;;
77457;SDS011;66541;49.346;8.648;2023-05-07T13:10:55;4.57;;;1.55;;
77457;SDS011;66541;49.346;8.648;2023-05-07T13:13:20;3.85;;;1.20;;
77457;SDS011;66541;49.346;8.648;2023-05-07T13:15:46;5.28;;;2.10;;
77457;SDS011;66541;49.346;8.648;2023-05-07T13:18:12;4.95;;;1.73;;
77457;SDS011;66541;49.346;8.648;2023-05-07T13:20:37;3.67;;;1.42;;
77457;SDS011;66541;49.346;8.648;2023-05-07T13:23:03;3.80;;;1.23;;
77457;SDS011;66541;49.346;8.648;2023-05-07T13:25:29;4.97;;;1.25;;
77457;SDS011;66541;49.346;8.648;2023-05-07T13:27:56;4.38;;;1.70;;
77457;SDS011;66541;49.346;8.648;2023-05-07T13:30:22;3.28;;;1.23;;
77457;SDS011;66541;49.346;8.648;2023-05-07T13:32:47;6.10;;;1.63;;
77457;SDS011;66541;49.346;8.648;2023-05-07T13:35:12;4.35;;;1.25;;
77457;SDS011;66541;49.346;8.648;2023-05-07T13:37:38;5.75;;;1.48;;
77457;SDS011;66541;49.346;8.648;2023-05-07T13:40:03;4.20;;;1.50;;
77457;SDS011;66541;49.346;8.648;2023-05-07T13:42:29;3.38;;;1.33;;
77457;SDS011;66541;49.346;8.648;2023-05-07T13:44:55;3.67;;;1.25;;
77457;SDS011;66541;49.346;8.648;2023-05-07T13:47:21;4.75;;;1.05;;
77457;SDS011;66541;49.346;8.648;2023-05-07T13:49:47;3.15;;;1.23;;
77457;SDS011;66541;49.346;8.648;2023-05-07T13:52:14;4.25;;;1.52;;
77457;SDS011;66541;49.346;8.648;2023-05-07T13:54:40;5.05;;;1.50;;
77457;SDS011;66541;49.346;8.648;2023-05-07T13:57:05;3.67;;;1.38;;
77457;SDS011;66541;49.346;8.648;2023-05-07T13:59:30;3.58;;;1.27;;
77457;SDS011;66541;49.346;8.648;2023-05-07T14:01:56;5.43;;;1.52;;
77457;SDS011;66541;49.346;8.648;2023-05-07T14:04:21;4.05;;;1.25;;
77457;SDS011;66541;49.346;8.648;2023-05-07T14:06:46;4.38;;;1.77;;
77457;SDS011;66541;49.346;8.648;2023-05-07T14:09:12;5.75;;;1.95;;
77457;SDS011;66541;49.346;8.648;2023-05-07T14:11:38;3.67;;;1.15;;
77457;SDS011;66541;49.346;8.648;2023-05-07T14:14:03;3.92;;;1.33;;
77457;SDS011;66541;49.346;8.648;2023-05-07T14:16:29;6.05;;;1.00;;
77457;SDS011;66541;49.346;8.648;2023-05-07T14:18:54;4.78;;;1.25;;
77457;SDS011;66541;49.346;8.648;2023-05-07T14:21:20;4.88;;;1.17;;
77457;SDS011;66541;49.346;8.648;2023-05-07T14:23:45;5.55;;;1.10;;
77457;SDS011;66541;49.346;8.648;2023-05-07T14:26:10;3.13;;;0.93;;
77457;SDS011;66541;49.346;8.648;2023-05-07T14:28:36;3.25;;;1.02;;
77457;SDS011;66541;49.346;8.648;2023-05-07T14:31:04;4.35;;;0.93;;
77457;SDS011;66541;49.346;8.648;2023-05-07T14:33:29;4.68;;;1.08;;
77457;SDS011;66541;49.346;8.648;2023-05-07T14:35:55;6.20;;;1.00;;
77457;SDS011;66541;49.346;8.648;2023-05-07T14:38:20;2.30;;;0.57;;
77457;SDS011;66541;49.346;8.648;2023-05-07T14:40:45;4.40;;;0.68;;
77457;SDS011;66541;49.346;8.648;2023-05-07T14:43:10;3.92;;;0.57;;
77457;SDS011;66541;49.346;8.648;2023-05-07T14:45:36;3.13;;;0.50;;
77457;SDS011;66541;49.346;8.648;2023-05-07T14:48:01;4.95;;;0.80;;
77457;SDS011;66541;49.346;8.648;2023-05-07T14:50:26;5.15;;;0.50;;
77457;SDS011;66541;49.346;8.648;2023-05-07T14:52:52;5.30;;;0.57;;
77457;SDS011;66541;49.346;8.648;2023-05-07T14:55:17;5.13;;;0.73;;
77457;SDS011;66541;49.346;8.648;2023-05-07T14:57:42;4.85;;;0.60;;
77457;SDS011;66541;49.346;8.648;2023-05-07T15:00:08;2.88;;;0.55;;
77457;SDS011;66541;49.346;8.648;2023-05-07T15:02:34;4.35;;;0.40;;